Terminal Aerodrome Forecast
Issued by NWS

Home | Current Version | Previous Version | Text Only | Print | Product List | Glossary On
Versions: 1 2 3 4 5 6 7 8 9 10 11 12 13 14 15 16
000
FTAK31 PAJN 110500
TAFAWG
TAF
PAWG 110529Z 1106/1206 24006KT P6SM FEW050 BKN250
     FM111700 30005KT P6SM FEW030 BKN200
     FM120100 30005KT P6SM FEW030 BKN120
      AMD LTD TO CLD VIS AND WIND 1106/1115=

USA.gov is the U.S. government's official web portal to all federal, state and local government web resources and services.